createdAt,value
2016-04-27T00:00:12.982Z,992.21
2016-04-27T00:01:13.031Z,992.18
2016-04-27T00:02:13.096Z,992.12
2016-04-27T00:03:13.130Z,992.16
2016-04-27T00:04:13.180Z,992.19
2016-04-27T00:05:13.229Z,992.2
2016-04-27T00:06:13.466Z,992.17
2016-04-27T00:07:13.343Z,992.22
2016-04-27T00:08:13.394Z,992.15
2016-04-27T00:09:13.443Z,992.22
2016-04-27T00:10:13.492Z,992.19
2016-04-27T00:11:13.542Z,992.1
2016-04-27T00:12:13.592Z,992.21
2016-04-27T00:13:13.642Z,992.21
2016-04-27T00:14:13.691Z,992.16
2016-04-27T00:15:13.756Z,992.18
2016-04-27T00:16:13.789Z,992.13
2016-04-27T00:17:13.839Z,992.18
2016-04-27T00:18:13.905Z,992.12
2016-04-27T00:19:13.938Z,992.16
2016-04-27T00:20:13.989Z,992.15
2016-04-27T00:21:14.053Z,992.14
2016-04-27T00:22:14.103Z,992.15
2016-04-27T00:23:14.153Z,992.12
2016-04-27T00:24:14.202Z,992.12
2016-04-27T00:25:14.252Z,992.16
2016-04-27T00:26:14.301Z,992.12
2016-04-27T00:27:14.351Z,992.16
2016-04-27T00:28:14.400Z,992.16
2016-04-27T00:29:14.450Z,992.17
2016-04-27T00:30:14.499Z,992.18
2016-04-27T00:31:14.549Z,992.24
2016-04-27T00:32:14.599Z,992.21
2016-04-27T00:33:14.664Z,992.23
2016-04-27T00:34:14.698Z,992.19
2016-04-27T00:35:14.763Z,992.24
2016-04-27T00:36:14.812Z,992.23
2016-04-27T00:37:15.753Z,992.21
2016-04-27T00:38:14.912Z,992.25
2016-04-27T00:39:14.976Z,992.23
2016-04-27T00:40:15.025Z,992.32
2016-04-27T00:41:15.051Z,992.29
2016-04-27T00:42:15.275Z,992.23
2016-04-27T00:43:15.189Z,992.26
2016-04-27T00:44:15.190Z,992.3
2016-04-27T00:45:15.246Z,992.31
2016-04-27T00:46:15.296Z,992.37
2016-04-27T00:47:15.345Z,992.41
2016-04-27T00:48:15.410Z,992.39
2016-04-27T00:49:24.929Z,992.42
2016-04-27T00:50:15.510Z,992.39
2016-04-27T00:51:15.543Z,992.38
2016-04-27T00:52:15.593Z,992.36
2016-04-27T00:53:15.658Z,992.37
2016-04-27T00:54:15.707Z,992.36
2016-04-27T00:55:15.758Z,992.34
2016-04-27T00:56:15.807Z,992.35
2016-04-27T00:57:15.856Z,992.39
2016-04-27T00:58:15.905Z,992.39
2016-04-27T00:59:15.956Z,992.41
2016-04-27T01:00:16.005Z,992.43
2016-04-27T01:01:16.055Z,992.42
2016-04-27T01:02:16.105Z,992.41
2016-04-27T01:03:16.154Z,992.41
2016-04-27T01:04:16.203Z,992.38
2016-04-27T01:05:16.252Z,992.43
2016-04-27T01:06:16.319Z,992.4
2016-04-27T01:07:16.352Z,992.42
2016-04-27T01:08:16.401Z,992.41
2016-04-27T01:09:16.452Z,992.46
2016-04-27T01:10:16.516Z,992.43
2016-04-27T01:11:16.565Z,992.45
2016-04-27T01:12:16.615Z,992.47
2016-04-27T01:13:16.665Z,992.49
2016-04-27T01:14:16.715Z,992.53
2016-04-27T01:15:16.764Z,992.51
2016-04-27T01:16:16.814Z,992.55
2016-04-27T01:17:16.863Z,992.53
2016-04-27T01:18:16.912Z,992.52
2016-04-27T01:19:16.962Z,992.48
2016-04-27T01:20:17.012Z,992.53
2016-04-27T01:21:17.077Z,992.52
2016-04-27T01:22:17.117Z,992.51
2016-04-27T01:23:21.683Z,992.49
2016-04-27T01:24:17.217Z,992.52
2016-04-27T01:25:17.267Z,992.47
2016-04-27T01:26:17.317Z,992.49
2016-04-27T01:27:17.366Z,992.48
2016-04-27T01:28:17.416Z,992.49
2016-04-27T01:29:17.466Z,992.49
2016-04-27T01:30:17.516Z,992.47
2016-04-27T01:31:17.565Z,992.49
2016-04-27T01:32:17.614Z,992.47
2016-04-27T01:33:17.664Z,992.47
2016-04-27T01:34:17.714Z,992.46
2016-04-27T01:35:17.763Z,992.53
2016-04-27T01:36:17.813Z,992.46
2016-04-27T01:37:17.878Z,992.49
2016-04-27T01:38:17.927Z,992.45
2016-04-27T01:39:17.977Z,992.49
2016-04-27T01:40:18.026Z,992.49
2016-04-27T01:41:18.076Z,992.52
2016-04-27T01:42:18.126Z,992.52
2016-04-27T01:43:18.175Z,992.54
2016-04-27T01:44:18.225Z,992.56
2016-04-27T01:45:18.274Z,992.54
2016-04-27T01:46:18.324Z,992.54
2016-04-27T01:47:18.373Z,992.57
2016-04-27T01:48:18.423Z,992.58
2016-04-27T01:49:18.473Z,992.56
2016-04-27T01:50:18.524Z,992.57
2016-04-27T01:51:19.229Z,992.61
2016-04-27T01:52:18.638Z,992.63
2016-04-27T01:53:18.672Z,992.64
2016-04-27T01:54:18.737Z,992.63
2016-04-27T01:55:18.770Z,992.69
2016-04-27T01:56:18.837Z,992.67
2016-04-27T01:57:18.870Z,992.65
2016-04-27T01:58:18.920Z,992.71
2016-04-27T01:59:18.984Z,992.7
2016-04-27T02:00:19.034Z,992.7
2016-04-27T02:01:19.084Z,992.71
2016-04-27T02:02:19.134Z,992.71
2016-04-27T02:03:19.198Z,992.69
2016-04-27T02:04:19.233Z,992.7
2016-04-27T02:05:19.283Z,992.67
2016-04-27T02:06:19.332Z,992.71
2016-04-27T02:07:19.381Z,992.71
2016-04-27T02:08:20.744Z,992.72
2016-04-27T02:09:19.481Z,992.68
2016-04-27T02:10:19.531Z,992.73
2016-04-27T02:11:19.580Z,992.69
2016-04-27T02:12:19.629Z,992.69
2016-04-27T02:13:19.694Z,992.69
2016-04-27T02:14:19.744Z,992.71
2016-04-27T02:15:19.793Z,992.7
2016-04-27T02:16:19.843Z,992.7
2016-04-27T02:17:19.877Z,992.74
2016-04-27T02:18:19.943Z,992.76
2016-04-27T02:19:19.976Z,992.74
2016-04-27T02:20:20.041Z,992.73
2016-04-27T02:21:20.091Z,992.76
2016-04-27T02:22:20.141Z,992.76
2016-04-27T02:23:20.190Z,992.74
2016-04-27T02:24:20.240Z,992.74
2016-04-27T02:25:20.290Z,992.77
2016-04-27T02:26:20.340Z,992.78
2016-04-27T02:27:20.387Z,992.75
2016-04-27T02:28:20.437Z,992.75
2016-04-27T02:29:20.488Z,992.8
2016-04-27T02:30:20.537Z,992.82
2016-04-27T02:31:20.586Z,992.79
2016-04-27T02:32:20.636Z,992.81
2016-04-27T02:33:20.701Z,992.84
2016-04-27T02:34:20.736Z,992.79
2016-04-27T02:35:20.784Z,992.81
2016-04-27T02:36:20.851Z,992.77
2016-04-27T02:37:20.899Z,992.75
2016-04-27T02:38:20.950Z,992.79
2016-04-27T02:39:20.999Z,992.81
2016-04-27T02:40:21.048Z,992.84
2016-04-27T02:41:21.098Z,992.85
2016-04-27T02:42:21.155Z,992.84
2016-04-27T02:43:21.246Z,992.84
2016-04-27T02:44:21.337Z,992.81
2016-04-27T02:45:21.430Z,992.84
2016-04-27T02:46:21.521Z,992.8
2016-04-27T02:47:21.607Z,992.83
2016-04-27T02:48:21.672Z,992.77
2016-04-27T02:49:21.737Z,992.79
2016-04-27T02:50:21.803Z,992.78
2016-04-27T02:51:22.476Z,992.76
2016-04-27T02:52:22.946Z,992.82
2016-04-27T02:53:21.986Z,992.81
2016-04-27T02:54:22.040Z,992.77
2016-04-27T02:55:22.111Z,992.77
2016-04-27T02:56:22.165Z,992.83
2016-04-27T02:57:22.204Z,992.87
2016-04-27T02:58:22.271Z,992.85
2016-04-27T02:59:22.308Z,992.89
2016-04-27T03:00:22.359Z,992.91
2016-04-27T03:01:22.410Z,992.91
2016-04-27T03:02:22.477Z,992.91
2016-04-27T03:03:22.512Z,992.91
2016-04-27T03:04:22.578Z,992.88
2016-04-27T03:05:22.644Z,992.91
2016-04-27T03:06:22.679Z,992.89
2016-04-27T03:07:22.729Z,992.89
2016-04-27T03:08:22.779Z,992.88
2016-04-27T03:09:22.829Z,992.9
2016-04-27T03:10:22.878Z,992.88
2016-04-27T03:11:22.928Z,992.93
2016-04-27T03:12:22.979Z,992.89
2016-04-27T03:13:23.029Z,992.93
2016-04-27T03:14:23.078Z,992.91
2016-04-27T03:15:23.127Z,992.89
2016-04-27T03:16:23.177Z,992.87
2016-04-27T03:17:23.226Z,992.87
2016-04-27T03:18:23.275Z,992.85
2016-04-27T03:19:23.325Z,992.91
2016-04-27T03:20:23.391Z,992.91
2016-04-27T03:21:23.441Z,992.86
2016-04-27T03:22:23.489Z,992.86
2016-04-27T03:23:23.524Z,992.9
2016-04-27T03:24:23.574Z,992.89
2016-04-27T03:25:23.655Z,992.91
2016-04-27T03:26:23.688Z,992.87
2016-04-27T03:27:23.737Z,992.86
2016-04-27T03:28:23.835Z,992.85
2016-04-27T03:29:23.837Z,992.88
2016-04-27T03:30:23.886Z,992.86
2016-04-27T03:31:23.936Z,992.84
2016-04-27T03:32:23.985Z,992.87
2016-04-27T03:33:24.035Z,992.83
2016-04-27T03:34:24.085Z,992.88
2016-04-27T03:35:24.134Z,992.83
2016-04-27T03:36:24.184Z,992.85
2016-04-27T03:37:25.046Z,992.89
2016-04-27T03:38:24.282Z,992.85
2016-04-27T03:39:24.332Z,992.87
2016-04-27T03:40:24.382Z,992.88
2016-04-27T03:41:24.447Z,992.88
2016-04-27T03:42:24.481Z,992.89
2016-04-27T03:43:24.531Z,992.91
2016-04-27T03:44:24.595Z,992.88
2016-04-27T03:45:24.645Z,992.9
2016-04-27T03:46:24.695Z,992.9
2016-04-27T03:47:24.745Z,992.92
2016-04-27T03:48:24.794Z,992.89
2016-04-27T03:49:24.844Z,992.89
2016-04-27T03:50:24.893Z,992.89
2016-04-27T03:51:25.037Z,992.87
2016-04-27T03:52:24.992Z,992.89
2016-04-27T03:53:25.042Z,992.85
2016-04-27T03:54:25.092Z,992.87
2016-04-27T03:55:25.141Z,992.9
2016-04-27T03:56:25.191Z,992.87
2016-04-27T03:57:25.240Z,992.88
2016-04-27T03:58:25.290Z,992.87
2016-04-27T03:59:25.339Z,992.84
2016-04-27T04:00:25.388Z,992.92
2016-04-27T04:01:25.438Z,992.85
2016-04-27T04:02:25.488Z,992.89
2016-04-27T04:03:25.538Z,992.87
2016-04-27T04:04:25.587Z,992.87
2016-04-27T04:05:25.638Z,992.86
2016-04-27T04:06:25.765Z,992.86
2016-04-27T04:07:25.752Z,992.84
2016-04-27T04:08:25.786Z,992.9
2016-04-27T04:09:25.852Z,992.85
2016-04-27T04:10:25.885Z,992.87
2016-04-27T04:11:25.952Z,992.86
2016-04-27T04:12:26.000Z,992.8
2016-04-27T04:13:26.049Z,992.83
2016-04-27T04:14:26.099Z,992.79
2016-04-27T04:15:26.149Z,992.78
2016-04-27T04:16:26.198Z,992.81
2016-04-27T04:17:26.249Z,992.77
2016-04-27T04:18:26.298Z,992.76
2016-04-27T04:19:26.348Z,992.78
2016-04-27T04:20:26.397Z,992.76
2016-04-27T04:21:26.446Z,992.77
2016-04-27T04:22:26.500Z,992.79
2016-04-27T04:23:26.549Z,992.79
2016-04-27T04:24:26.599Z,992.74
2016-04-27T04:25:26.648Z,992.81
2016-04-27T04:26:26.699Z,992.79
2016-04-27T04:27:26.747Z,992.78
2016-04-27T04:28:26.797Z,992.75
2016-04-27T04:29:26.847Z,992.73
2016-04-27T04:30:26.897Z,992.75
2016-04-27T04:31:26.946Z,992.75
2016-04-27T04:32:26.996Z,992.79
2016-04-27T04:33:27.045Z,992.81
2016-04-27T04:34:27.095Z,992.74
2016-04-27T04:35:27.143Z,992.74
2016-04-27T04:36:27.209Z,992.75
2016-04-27T04:37:27.712Z,992.75
2016-04-27T04:38:27.309Z,992.73
2016-04-27T04:39:27.358Z,992.67
2016-04-27T04:40:27.407Z,992.71
2016-04-27T04:41:27.442Z,992.7
2016-04-27T04:42:27.506Z,992.66
2016-04-27T04:43:27.557Z,992.69
2016-04-27T04:44:27.590Z,992.68
2016-04-27T04:45:27.656Z,992.71
2016-04-27T04:46:27.705Z,992.68
2016-04-27T04:47:27.755Z,992.69
2016-04-27T04:48:27.804Z,992.64
2016-04-27T04:49:27.853Z,992.65
2016-04-27T04:50:27.903Z,992.66
2016-04-27T04:51:27.953Z,992.69
2016-04-27T04:52:28.002Z,992.66
2016-04-27T04:53:28.053Z,992.67
2016-04-27T04:54:28.102Z,992.65
2016-04-27T04:55:28.151Z,992.67
2016-04-27T04:56:28.200Z,992.7
2016-04-27T04:57:28.250Z,992.67
2016-04-27T04:58:28.299Z,992.72
2016-04-27T04:59:28.349Z,992.71
2016-04-27T05:00:28.400Z,992.64
2016-04-27T05:01:28.449Z,992.67
2016-04-27T05:02:28.499Z,992.66
2016-04-27T05:03:28.563Z,992.67
2016-04-27T05:04:28.613Z,992.67
2016-04-27T05:05:28.647Z,992.67
2016-04-27T05:06:28.712Z,992.63
2016-04-27T05:07:28.746Z,992.65
2016-04-27T05:08:28.795Z,992.63
2016-04-27T05:09:28.860Z,992.62
2016-04-27T05:10:28.910Z,992.64
2016-04-27T05:11:28.960Z,992.67
2016-04-27T05:12:29.010Z,992.62
2016-04-27T05:13:29.059Z,992.69
2016-04-27T05:14:29.109Z,992.7
2016-04-27T05:15:29.158Z,992.66
2016-04-27T05:16:29.208Z,992.64
2016-04-27T05:17:29.256Z,992.68
2016-04-27T05:18:29.306Z,992.67
2016-04-27T05:19:29.356Z,992.62
2016-04-27T05:20:29.406Z,992.73
2016-04-27T05:21:29.456Z,992.67
2016-04-27T05:22:29.505Z,992.67
2016-04-27T05:23:29.555Z,992.63
2016-04-27T05:24:29.604Z,992.62
2016-04-27T05:25:29.653Z,992.65
2016-04-27T05:26:29.703Z,992.63
2016-04-27T05:27:29.752Z,992.59
2016-04-27T05:28:29.803Z,992.6
2016-04-27T05:29:29.852Z,992.62
2016-04-27T05:30:29.902Z,992.63
2016-04-27T05:31:29.952Z,992.66
2016-04-27T05:32:30.001Z,992.6
2016-04-27T05:33:30.050Z,992.58
2016-04-27T05:34:30.099Z,992.65
2016-04-27T05:35:30.149Z,992.64
2016-04-27T05:36:30.199Z,992.61
2016-04-27T05:37:30.265Z,992.56
2016-04-27T05:38:30.313Z,992.58
2016-04-27T05:39:30.363Z,992.6
2016-04-27T05:40:30.413Z,992.57
2016-04-27T05:41:30.462Z,992.61
2016-04-27T05:42:30.512Z,992.55
2016-04-27T05:43:30.561Z,992.6
2016-04-27T05:44:30.611Z,992.62
2016-04-27T05:45:30.661Z,992.61
2016-04-27T05:46:30.710Z,992.63
2016-04-27T05:47:30.776Z,992.64
2016-04-27T05:48:30.809Z,992.6
2016-04-27T05:49:30.890Z,992.63
2016-04-27T05:50:30.908Z,992.66
2016-04-27T05:51:30.958Z,992.62
2016-04-27T05:52:31.008Z,992.63
2016-04-27T05:53:31.058Z,992.65
2016-04-27T05:54:31.106Z,992.6
2016-04-27T05:55:31.156Z,992.65
2016-04-27T05:56:31.206Z,992.7
2016-04-27T05:57:31.256Z,992.7
2016-04-27T05:58:31.305Z,992.67
2016-04-27T05:59:31.355Z,992.72
2016-04-27T06:00:31.404Z,992.71
2016-04-27T06:01:31.469Z,992.76
2016-04-27T06:02:31.519Z,992.77
2016-04-27T06:03:31.569Z,992.81
2016-04-27T06:04:31.618Z,992.73
2016-04-27T06:05:31.668Z,992.78
2016-04-27T06:06:31.717Z,992.77
2016-04-27T06:07:32.266Z,992.78
2016-04-27T06:08:31.816Z,992.75
2016-04-27T06:09:31.865Z,992.79
2016-04-27T06:10:31.916Z,992.8
2016-04-27T06:11:31.965Z,992.85
2016-04-27T06:12:32.015Z,992.81
2016-04-27T06:13:32.065Z,992.82
2016-04-27T06:14:32.114Z,992.84
2016-04-27T06:15:32.179Z,992.92
2016-04-27T06:16:32.212Z,992.86
2016-04-27T06:17:32.262Z,992.87
2016-04-27T06:18:32.312Z,992.9
2016-04-27T06:19:32.361Z,992.89
2016-04-27T06:20:32.412Z,992.9
2016-04-27T06:21:32.461Z,992.96
2016-04-27T06:22:33.651Z,992.93
2016-04-27T06:23:32.560Z,992.88
2016-04-27T06:24:32.609Z,992.95
2016-04-27T06:25:32.659Z,992.9
2016-04-27T06:26:32.708Z,992.91
2016-04-27T06:27:32.758Z,992.89
2016-04-27T06:28:32.808Z,992.89
2016-04-27T06:29:32.857Z,992.9
2016-04-27T06:30:32.907Z,992.89
2016-04-27T06:31:32.956Z,992.9
2016-04-27T06:32:33.005Z,992.98
2016-04-27T06:33:33.055Z,992.97
2016-04-27T06:34:33.105Z,993.02
2016-04-27T06:35:33.154Z,993.01
2016-04-27T06:36:33.204Z,993.04
2016-04-27T06:37:33.253Z,993.04
2016-04-27T06:38:33.304Z,993.12
2016-04-27T06:39:33.352Z,993.05
2016-04-27T06:40:33.418Z,993.1
2016-04-27T06:41:33.452Z,993.08
2016-04-27T06:42:33.517Z,993.09
2016-04-27T06:43:33.551Z,993.15
2016-04-27T06:44:33.601Z,993.1
2016-04-27T06:45:33.650Z,993.05
2016-04-27T06:46:33.700Z,993.1
2016-04-27T06:47:33.749Z,993.09
2016-04-27T06:48:33.799Z,993.11
2016-04-27T06:49:33.849Z,993.12
2016-04-27T06:50:33.898Z,993.08
2016-04-27T06:51:33.947Z,993.12
2016-04-27T06:52:33.998Z,993.13
2016-04-27T06:53:34.047Z,993.13
2016-04-27T06:54:34.097Z,993.13
2016-04-27T06:55:34.145Z,993.12
2016-04-27T06:56:34.195Z,993.17
2016-04-27T06:57:34.245Z,993.18
2016-04-27T06:58:34.295Z,993.19
2016-04-27T06:59:34.344Z,993.14
2016-04-27T07:00:34.394Z,993.15
2016-04-27T07:01:34.444Z,993.14
2016-04-27T07:02:34.493Z,993.21
2016-04-27T07:03:34.542Z,993.08
2016-04-27T07:04:34.591Z,993.21
2016-04-27T07:05:34.641Z,993.18
2016-04-27T07:06:34.691Z,993.33
2016-04-27T07:07:35.710Z,993.28
2016-04-27T07:08:34.791Z,993.27
2016-04-27T07:09:34.840Z,993.29
2016-04-27T07:10:34.890Z,993.27
2016-04-27T07:11:34.955Z,993.25
2016-04-27T07:12:34.988Z,993.28
2016-04-27T07:13:35.038Z,993.32
2016-04-27T07:14:35.087Z,993.36
2016-04-27T07:15:35.137Z,993.35
2016-04-27T07:16:35.171Z,993.4
2016-04-27T07:17:35.221Z,993.39
2016-04-27T07:18:35.271Z,993.44
2016-04-27T07:19:35.320Z,993.46
2016-04-27T07:20:35.370Z,993.44
2016-04-27T07:21:35.434Z,993.47
2016-04-27T07:22:35.468Z,993.56
2016-04-27T07:23:35.533Z,993.67
2016-04-27T07:24:35.584Z,993.74
2016-04-27T07:25:35.633Z,993.75
2016-04-27T07:26:35.682Z,993.84
2016-04-27T07:27:35.732Z,993.84
2016-04-27T07:28:35.781Z,993.86
2016-04-27T07:29:35.815Z,993.9
2016-04-27T07:30:35.881Z,993.96
2016-04-27T07:31:35.977Z,993.93
2016-04-27T07:32:35.980Z,994
2016-04-27T07:33:36.014Z,994.02
2016-04-27T07:34:36.079Z,993.98
2016-04-27T07:35:36.113Z,994.07
2016-04-27T07:36:36.772Z,994.05
2016-04-27T07:37:36.227Z,994.1
2016-04-27T07:38:36.277Z,994.1
2016-04-27T07:39:36.311Z,994.15
2016-04-27T07:40:36.360Z,994.13
2016-04-27T07:41:38.332Z,994.19
2016-04-27T07:42:36.460Z,994.23
2016-04-27T07:43:36.510Z,994.2
2016-04-27T07:44:36.559Z,994.27
2016-04-27T07:45:36.623Z,994.28
2016-04-27T07:46:36.658Z,994.31
2016-04-27T07:47:36.724Z,994.29
2016-04-27T07:48:36.773Z,994.32
2016-04-27T07:49:36.823Z,994.34
2016-04-27T07:50:36.872Z,994.4
2016-04-27T07:51:39.484Z,994.47
2016-04-27T07:52:36.971Z,994.5
2016-04-27T07:53:37.005Z,994.52
2016-04-27T07:54:37.070Z,994.57
2016-04-27T07:55:37.104Z,994.57
2016-04-27T07:56:37.153Z,994.61
2016-04-27T07:57:37.203Z,994.63
2016-04-27T07:58:37.252Z,994.5
2016-04-27T07:59:37.302Z,994.59
2016-04-27T08:00:37.352Z,994.68
2016-04-27T08:01:37.417Z,994.75
2016-04-27T08:02:37.467Z,994.78
2016-04-27T08:03:37.500Z,994.78
2016-04-27T08:04:37.550Z,994.8
2016-04-27T08:05:37.599Z,994.78
2016-04-27T08:06:37.650Z,994.78
2016-04-27T08:07:38.402Z,994.8
2016-04-27T08:08:37.764Z,994.8
2016-04-27T08:09:37.813Z,994.8
2016-04-27T08:10:37.847Z,994.79
2016-04-27T08:11:40.725Z,994.8
2016-04-27T08:12:37.962Z,994.85
2016-04-27T08:13:38.012Z,994.83
2016-04-27T08:14:38.062Z,994.88
2016-04-27T08:15:38.111Z,994.86
2016-04-27T08:16:38.160Z,994.87
2016-04-27T08:17:38.195Z,994.84
2016-04-27T08:18:38.259Z,994.88
2016-04-27T08:19:38.310Z,994.88
2016-04-27T08:20:38.343Z,994.84
2016-04-27T08:21:38.424Z,994.92
2016-04-27T08:22:38.443Z,994.9
2016-04-27T08:23:38.492Z,994.97
2016-04-27T08:24:38.542Z,995.02
2016-04-27T08:25:38.606Z,995.01
2016-04-27T08:26:39.156Z,995.05
2016-04-27T08:27:38.705Z,995.04
2016-04-27T08:28:38.756Z,995.07
2016-04-27T08:29:38.805Z,995.03
2016-04-27T08:30:38.855Z,995.04
2016-04-27T08:31:38.889Z,995.03
2016-04-27T08:32:38.950Z,995.07
2016-04-27T08:33:39.001Z,995.11
2016-04-27T08:34:39.050Z,995.09
2016-04-27T08:35:39.099Z,995.13
2016-04-27T08:36:40.259Z,995.14
2016-04-27T08:37:39.199Z,995.16
2016-04-27T08:38:39.249Z,995.14
2016-04-27T08:39:39.297Z,995.14
2016-04-27T08:40:39.347Z,995.22
2016-04-27T08:41:39.397Z,995.16
2016-04-27T08:42:39.446Z,995.24
2016-04-27T08:43:39.496Z,995.25
2016-04-27T08:44:39.545Z,995.26
2016-04-27T08:45:39.596Z,995.34
2016-04-27T08:46:39.660Z,995.33
2016-04-27T08:47:39.693Z,995.29
2016-04-27T08:48:39.744Z,995.27
2016-04-27T08:49:39.809Z,995.26
2016-04-27T08:50:39.843Z,995.32
2016-04-27T08:51:39.893Z,995.36
2016-04-27T08:52:39.942Z,995.35
2016-04-27T08:53:39.992Z,995.41
2016-04-27T08:54:40.041Z,995.38
2016-04-27T08:55:40.091Z,995.4
2016-04-27T08:56:40.140Z,995.38
2016-04-27T08:57:40.205Z,995.35
2016-04-27T08:58:40.240Z,995.37
2016-04-27T08:59:40.664Z,995.39
2016-04-27T09:00:40.354Z,995.4
2016-04-27T09:01:40.403Z,995.38
2016-04-27T09:02:40.453Z,995.44
2016-04-27T09:03:40.503Z,995.37
2016-04-27T09:04:40.553Z,995.44
2016-04-27T09:05:40.602Z,995.46
2016-04-27T09:06:40.652Z,995.45
2016-04-27T09:07:40.702Z,995.44
2016-04-27T09:08:40.735Z,995.49
2016-04-27T09:09:41.457Z,995.51
2016-04-27T09:10:40.850Z,995.45
2016-04-27T09:11:40.900Z,995.56
2016-04-27T09:12:40.949Z,995.53
2016-04-27T09:13:40.998Z,995.56
2016-04-27T09:14:41.048Z,995.51
2016-04-27T09:15:41.098Z,995.5
2016-04-27T09:16:41.632Z,995.56
2016-04-27T09:17:41.197Z,995.63
2016-04-27T09:18:41.246Z,995.51
2016-04-27T09:19:41.296Z,995.56
2016-04-27T09:20:41.346Z,995.64
2016-04-27T09:21:41.395Z,995.62
2016-04-27T09:22:41.710Z,995.58
2016-04-27T09:23:41.495Z,995.62
2016-04-27T09:24:41.543Z,995.62
2016-04-27T09:25:41.593Z,995.63
2016-04-27T09:26:41.767Z,995.62
2016-04-27T09:27:41.693Z,995.62
2016-04-27T09:28:41.758Z,995.72
2016-04-27T09:29:41.792Z,995.66
2016-04-27T09:30:41.841Z,995.68
2016-04-27T09:31:41.891Z,995.72
2016-04-27T09:32:41.940Z,995.69
2016-04-27T09:33:41.990Z,995.66
2016-04-27T09:34:42.055Z,995.69
2016-04-27T09:35:42.105Z,995.79
2016-04-27T09:36:42.155Z,995.77
2016-04-27T09:37:42.203Z,995.99
2016-04-27T09:38:42.238Z,995.79
2016-04-27T09:39:42.302Z,995.73
2016-04-27T09:40:42.337Z,995.81
2016-04-27T09:41:42.386Z,995.75
2016-04-27T09:42:42.452Z,995.87
2016-04-27T09:43:42.502Z,995.74
2016-04-27T09:44:42.551Z,995.78
2016-04-27T09:45:42.585Z,995.84
2016-04-27T09:46:42.650Z,995.78
2016-04-27T09:47:42.699Z,995.84
2016-04-27T09:48:42.765Z,995.89
2016-04-27T09:49:42.783Z,995.87
2016-04-27T09:50:42.849Z,995.86
2016-04-27T09:51:42.898Z,995.87
2016-04-27T09:52:42.963Z,995.85
2016-04-27T09:53:42.997Z,995.84
2016-04-27T09:54:43.046Z,995.84
2016-04-27T09:55:43.095Z,995.86
2016-04-27T09:56:43.146Z,995.87
2016-04-27T09:57:43.195Z,995.83
2016-04-27T09:58:43.245Z,995.91
2016-04-27T09:59:43.295Z,995.89
2016-04-27T10:00:43.344Z,995.82
2016-04-27T10:01:43.393Z,995.81
2016-04-27T10:02:43.443Z,995.83
2016-04-27T10:03:43.492Z,995.83
2016-04-27T10:04:43.542Z,995.88
2016-04-27T10:05:43.592Z,995.91
2016-04-27T10:06:43.642Z,995.82
2016-04-27T10:07:43.691Z,995.81
2016-04-27T10:08:43.740Z,995.86
2016-04-27T10:09:43.790Z,995.86
2016-04-27T10:10:43.839Z,995.87
2016-04-27T10:11:44.669Z,995.91
2016-04-27T10:12:43.939Z,995.93
2016-04-27T10:13:43.988Z,995.93
2016-04-27T10:14:44.038Z,995.94
2016-04-27T10:15:44.087Z,995.98
2016-04-27T10:16:44.372Z,996.07
2016-04-27T10:17:44.186Z,996.05
2016-04-27T10:18:44.236Z,996.09
2016-04-27T10:19:44.302Z,996.06
2016-04-27T10:20:44.335Z,996.13
2016-04-27T10:21:44.385Z,996.12
2016-04-27T10:22:44.451Z,996.14
2016-04-27T10:23:44.501Z,996.14
2016-04-27T10:24:44.550Z,996.16
2016-04-27T10:25:44.585Z,996.19
2016-04-27T10:26:44.650Z,996.21
2016-04-27T10:27:44.700Z,996.22
2016-04-27T10:28:44.735Z,996.2
2016-04-27T10:29:44.784Z,996.14
2016-04-27T10:30:44.849Z,996.2
2016-04-27T10:31:45.508Z,996.2
2016-04-27T10:32:44.933Z,996.24
2016-04-27T10:33:44.998Z,996.22
2016-04-27T10:34:45.048Z,996.14
2016-04-27T10:35:45.097Z,996.18
2016-04-27T10:36:46.240Z,996.15
2016-04-27T10:37:45.197Z,996.13
2016-04-27T10:38:45.245Z,996.24
2016-04-27T10:39:45.280Z,996.2
2016-04-27T10:40:45.344Z,996.26
2016-04-27T10:41:45.395Z,996.25
2016-04-27T10:42:45.428Z,996.22
2016-04-27T10:43:45.494Z,996.27
2016-04-27T10:44:45.543Z,996.19
2016-04-27T10:45:45.593Z,996.19
2016-04-27T10:46:46.033Z,996.29
2016-04-27T10:47:45.692Z,996.32
2016-04-27T10:48:45.741Z,996.29
2016-04-27T10:49:45.791Z,996.29
2016-04-27T10:50:45.841Z,996.33
2016-04-27T10:51:47.249Z,996.3
2016-04-27T10:52:46.158Z,996.34
2016-04-27T10:53:46.552Z,996.3
2016-04-27T10:54:46.039Z,996.32
2016-04-27T10:55:46.088Z,996.37
2016-04-27T10:56:46.137Z,996.4
2016-04-27T10:57:46.204Z,996.38
2016-04-27T10:58:46.237Z,996.38
2016-04-27T10:59:46.287Z,996.37
2016-04-27T11:00:46.355Z,996.42
2016-04-27T11:01:46.389Z,996.31
2016-04-27T11:02:46.439Z,996.35
2016-04-27T11:03:46.489Z,996.34
2016-04-27T11:04:46.539Z,996.36
2016-04-27T11:05:46.604Z,996.35
2016-04-27T11:06:46.637Z,996.34
2016-04-27T11:07:47.438Z,996.33
2016-04-27T11:08:46.752Z,996.35
2016-04-27T11:09:46.802Z,996.36
2016-04-27T11:10:46.836Z,996.38
2016-04-27T11:11:46.885Z,996.39
2016-04-27T11:12:46.951Z,996.42
2016-04-27T11:13:46.985Z,996.44
2016-04-27T11:14:47.049Z,996.49
2016-04-27T11:15:47.084Z,996.48
2016-04-27T11:16:47.148Z,996.45
2016-04-27T11:17:47.199Z,996.57
2016-04-27T11:18:47.232Z,996.6
2016-04-27T11:19:47.282Z,996.58
2016-04-27T11:20:47.347Z,996.65
2016-04-27T11:21:48.490Z,996.7
2016-04-27T11:22:47.431Z,996.7
2016-04-27T11:23:48.698Z,996.72
2016-04-27T11:24:47.545Z,996.71
2016-04-27T11:25:47.595Z,996.72
2016-04-27T11:26:47.644Z,996.76
2016-04-27T11:27:47.694Z,996.82
2016-04-27T11:28:47.728Z,996.77
2016-04-27T11:29:47.794Z,996.81
2016-04-27T11:30:47.843Z,996.83
2016-04-27T11:31:47.892Z,996.82
2016-04-27T11:32:47.942Z,996.94
2016-04-27T11:33:47.991Z,996.9
2016-04-27T11:34:48.041Z,996.89
2016-04-27T11:35:48.091Z,996.91
2016-04-27T11:36:48.141Z,996.88
2016-04-27T11:37:48.191Z,996.93
2016-04-27T11:38:48.255Z,996.95
2016-04-27T11:39:48.288Z,997.01
2016-04-27T11:40:48.338Z,996.96
2016-04-27T11:41:48.388Z,996.98
2016-04-27T11:42:48.438Z,996.9
2016-04-27T11:43:48.487Z,996.94
2016-04-27T11:44:48.537Z,996.91
2016-04-27T11:45:48.586Z,996.96
2016-04-27T11:46:48.635Z,996.98
2016-04-27T11:47:48.701Z,996.96
2016-04-27T11:48:48.762Z,997.01
2016-04-27T11:49:48.873Z,996.97
2016-04-27T11:50:48.967Z,996.99
2016-04-27T11:51:49.061Z,997.01
2016-04-27T11:52:50.155Z,996.98
2016-04-27T11:53:49.218Z,997.04
2016-04-27T11:54:49.283Z,997.05
2016-04-27T11:55:49.365Z,997.12
2016-04-27T11:56:49.430Z,997.2
2016-04-27T11:57:49.480Z,997.24
2016-04-27T11:58:49.555Z,997.21
2016-04-27T11:59:49.610Z,997.2
2016-04-27T12:00:49.650Z,997.1
2016-04-27T12:01:49.720Z,997.13
2016-04-27T12:02:49.776Z,997.18
2016-04-27T12:03:49.814Z,997.14
2016-04-27T12:04:49.882Z,997.13
2016-04-27T12:05:49.918Z,997.12
2016-04-27T12:06:49.985Z,997.14
2016-04-27T12:07:52.271Z,997.15
2016-04-27T12:08:50.087Z,997.1
2016-04-27T12:09:50.138Z,997.16
2016-04-27T12:10:50.189Z,997.12
2016-04-27T12:11:50.239Z,997.17
2016-04-27T12:12:50.289Z,997.18
2016-04-27T12:13:50.355Z,997.2
2016-04-27T12:14:50.390Z,997.25
2016-04-27T12:15:50.439Z,997.23
2016-04-27T12:16:50.489Z,997.29
2016-04-27T12:17:50.539Z,997.23
2016-04-27T12:18:50.588Z,997.23
2016-04-27T12:19:50.639Z,997.29
2016-04-27T12:20:50.688Z,997.3
2016-04-27T12:21:50.737Z,997.33
2016-04-27T12:22:50.802Z,997.32
2016-04-27T12:23:50.837Z,997.28
2016-04-27T12:24:51.793Z,997.35
2016-04-27T12:25:50.936Z,997.37
2016-04-27T12:26:51.001Z,997.39
2016-04-27T12:27:51.035Z,997.38
2016-04-27T12:28:51.084Z,997.43
2016-04-27T12:29:51.134Z,997.45
2016-04-27T12:30:51.184Z,997.44